Time;durP1;ratioP1;P1;durP2;ratioP2;P2;SDS_P1;SDS_P2;PMS_P1;PMS_P2;Temp;Humidity;BMP_temperature;BMP_pressure;BME280_temperature;BME280_humidity;BME280_pressure;Samples;Min_cycle;Max_cycle;Signal;HPM_P1;HPM_P2
2021/03/14 00:01:19;;;;;;;1.73;1.63;;;7.40;1.00;;;;;;4806418;28;20239;-74
2021/03/14 00:03:41;;;;;;;1.50;1.40;;;7.40;1.00;;;;;;4816660;28;20229;-83
2021/03/14 00:06:05;;;;;;;2.20;1.30;;;7.40;99.90;;;;;;4816338;28;20825;-76
2021/03/14 00:08:29;;;;;;;1.30;1.13;;;7.40;1.00;;;;;;4801322;28;20191;-83
2021/03/14 00:10:53;;;;;;;1.33;1.20;;;7.50;1.00;;;;;;4814102;28;20196;-80
2021/03/14 00:13:18;;;;;;;1.03;0.93;;;7.50;1.00;;;;;;4815836;28;20811;-87
2021/03/14 00:15:40;;;;;;;1.67;1.13;;;7.50;99.90;;;;;;4817534;28;20249;-85
2021/03/14 00:18:02;;;;;;;1.00;1.00;;;7.60;1.00;;;;;;4816730;28;20204;-76
2021/03/14 00:20:24;;;;;;;1.20;1.10;;;7.50;1.00;;;;;;4805785;28;20211;-86
2021/03/14 00:22:47;;;;;;;1.57;0.90;;;7.50;1.00;;;;;;4808425;28;20669;-86
2021/03/14 00:25:10;;;;;;;0.80;0.80;;;7.50;1.00;;;;;;4799284;28;20188;-82
2021/03/14 00:27:32;;;;;;;0.90;0.90;;;7.50;1.00;;;;;;4799531;28;20743;-73
2021/03/14 00:29:55;;;;;;;1.00;1.00;;;7.50;99.90;;;;;;4818786;28;20183;-84
2021/03/14 00:32:18;;;;;;;1.17;1.10;;;7.50;99.90;;;;;;4900872;28;20200;-76
2021/03/14 00:34:40;;;;;;;0.90;0.90;;;7.50;99.90;;;;;;4815176;28;20692;-81
2021/03/14 00:37:02;;;;;;;1.10;1.00;;;7.50;99.90;;;;;;4910271;28;20284;-76
2021/03/14 00:39:24;;;;;;;1.33;1.20;;;7.50;99.90;;;;;;4798363;28;20228;-81
2021/03/14 00:41:46;;;;;;;1.57;1.20;;;7.60;99.90;;;;;;4804820;28;20490;-85
2021/03/14 00:44:09;;;;;;;1.40;1.00;;;7.60;99.90;;;;;;4817089;28;20200;-82
2021/03/14 00:46:32;;;;;;;0.90;0.90;;;7.60;99.90;;;;;;4899076;28;20242;-78
2021/03/14 00:48:55;;;;;;;1.10;1.00;;;7.60;99.90;;;;;;4914169;28;20237;-76
2021/03/14 00:51:17;;;;;;;0.90;0.90;;;7.60;99.90;;;;;;4798632;28;20262;-85
2021/03/14 00:53:44;;;;;;;0.90;0.90;;;7.50;90.20;;;;;;4816094;28;20203;-73
2021/03/14 00:56:13;;;;;;;1.03;0.90;;;7.60;43.50;;;;;;4806777;28;20361;-77
2021/03/14 00:58:35;;;;;;;0.80;0.80;;;7.50;6.80;;;;;;4811159;28;20252;-75
2021/03/14 01:00:58;;;;;;;0.70;0.70;;;7.50;2.00;;;;;;4811971;28;20231;-82
2021/03/14 01:03:21;;;;;;;0.90;0.90;;;7.50;1.00;;;;;;4807040;28;20216;-83
2021/03/14 01:05:44;;;;;;;1.03;0.90;;;7.50;1.00;;;;;;4780814;28;20196;-79
2021/03/14 01:08:10;;;;;;;0.80;0.80;;;7.50;1.00;;;;;;4813908;28;20264;-78
2021/03/14 01:10:33;;;;;;;1.00;0.80;;;7.40;1.00;;;;;;4816632;28;20252;-74
2021/03/14 01:12:56;;;;;;;0.63;0.63;;;7.40;1.00;;;;;;4801643;28;20273;-77
2021/03/14 01:15:21;;;;;;;0.80;0.80;;;7.40;1.00;;;;;;4803135;28;20276;-76
2021/03/14 01:17:48;;;;;;;0.70;0.70;;;7.30;1.00;;;;;;4816756;28;20249;-72
2021/03/14 01:20:14;;;;;;;0.63;0.60;;;7.30;1.00;;;;;;4917772;28;20207;-80
2021/03/14 01:22:36;;;;;;;0.93;0.70;;;7.30;10.80;;;;;;4888452;28;20183;-80
2021/03/14 01:24:58;;;;;;;0.70;0.70;;;7.20;45.30;;;;;;4799532;28;20281;-81
2021/03/14 01:27:20;;;;;;;0.70;0.70;;;7.20;33.40;;;;;;4808218;28;20197;-84
2021/03/14 01:29:42;;;;;;;0.70;0.70;;;7.20;34.60;;;;;;4798598;28;20553;-83
2021/03/14 01:32:06;;;;;;;1.07;0.93;;;7.20;52.80;;;;;;4917133;28;20229;-84
2021/03/14 01:34:28;;;;;;;1.17;1.00;;;7.20;91.50;;;;;;4799548;28;20599;-81
2021/03/14 01:36:52;;;;;;;0.70;0.70;;;7.20;99.90;;;;;;4798328;28;20184;-82
2021/03/14 01:39:14;;;;;;;0.80;0.80;;;7.10;99.90;;;;;;4797421;28;20228;-85
2021/03/14 01:41:36;;;;;;;1.27;0.60;;;7.10;99.90;;;;;;4798346;28;20665;-81
2021/03/14 01:43:59;;;;;;;0.97;0.80;;;7.00;99.90;;;;;;4809596;28;20241;-72
2021/03/14 01:46:22;;;;;;;0.70;0.70;;;7.00;99.90;;;;;;4817162;28;20191;-83
2021/03/14 01:48:44;;;;;;;0.80;0.80;;;7.00;99.90;;;;;;4814488;28;20191;-83
2021/03/14 01:51:07;;;;;;;1.20;0.80;;;7.00;99.90;;;;;;4810823;28;20196;-78
2021/03/14 01:53:31;;;;;;;1.20;1.10;;;7.00;99.90;;;;;;4800425;28;20204;-82
2021/03/14 01:55:54;;;;;;;1.07;1.07;;;7.00;99.90;;;;;;4815126;28;20187;-81
2021/03/14 01:58:18;;;;;;;1.40;1.30;;;7.00;99.90;;;;;;4815304;28;20196;-79
2021/03/14 02:00:41;;;;;;;0.90;0.90;;;7.00;99.90;;;;;;4808518;28;20693;-83
2021/03/14 02:03:03;;;;;;;1.13;1.10;;;7.00;99.90;;;;;;4815868;28;20223;-79
2021/03/14 02:05:25;;;;;;;0.90;0.90;;;7.00;99.90;;;;;;4814275;28;20211;-79
2021/03/14 02:07:49;;;;;;;1.30;1.20;;;6.90;99.90;;;;;;4814887;28;20208;-77
2021/03/14 02:10:15;;;;;;;1.50;1.40;;;6.90;99.90;;;;;;4816625;28;20684;-82
2021/03/14 02:12:44;;;;;;;1.17;1.17;;;6.90;99.90;;;;;;4806018;28;20298;-74
2021/03/14 02:15:07;;;;;;;1.77;0.90;;;6.90;99.90;;;;;;4898682;28;20722;-75
2021/03/14 02:17:33;;;;;;;0.83;0.83;;;6.90;99.90;;;;;;4795694;28;20669;-79
2021/03/14 02:20:02;;;;;;;0.90;0.90;;;6.80;99.90;;;;;;4800387;28;20212;-83
2021/03/14 02:22:25;;;;;;;0.90;0.90;;;6.80;99.90;;;;;;4810052;28;20233;-83
2021/03/14 02:24:52;;;;;;;0.97;0.97;;;6.70;99.90;;;;;;4814490;28;20213;-78
2021/03/14 02:27:16;;;;;;;0.77;0.77;;;6.70;99.90;;;;;;4815211;28;20187;-76
2021/03/14 02:29:41;;;;;;;1.03;0.93;;;6.60;99.90;;;;;;4908907;28;20191;-84
2021/03/14 02:32:06;;;;;;;0.70;0.70;;;6.60;99.90;;;;;;4798205;28;20187;-73
2021/03/14 02:34:32;;;;;;;0.80;0.80;;;6.60;99.90;;;;;;4800835;28;20258;-76
2021/03/14 02:36:56;;;;;;;1.40;0.80;;;6.70;99.90;;;;;;4810642;28;20265;-78
2021/03/14 02:39:23;;;;;;;1.07;0.90;;;6.70;99.90;;;;;;4815455;28;20615;-74
2021/03/14 02:41:46;;;;;;;0.87;0.87;;;6.60;99.90;;;;;;4813772;28;20191;-82
2021/03/14 02:44:13;;;;;;;1.40;0.93;;;6.60;99.90;;;;;;4816438;28;20195;-77
2021/03/14 02:46:35;;;;;;;1.10;1.00;;;6.60;99.90;;;;;;4899699;28;20204;-81
2021/03/14 02:48:59;;;;;;;0.97;0.97;;;6.60;99.90;;;;;;4815754;28;20311;-80
2021/03/14 02:51:21;;;;;;;1.13;1.00;;;6.60;99.90;;;;;;4814250;28;20208;-88
2021/03/14 02:53:44;;;;;;;1.27;1.17;;;6.60;99.90;;;;;;4816242;28;20187;-82
2021/03/14 02:56:08;;;;;;;1.53;1.40;;;6.60;99.90;;;;;;4816334;28;20187;-80
2021/03/14 02:58:32;;;;;;;1.00;1.00;;;6.50;99.90;;;;;;4904066;28;20188;-82
2021/03/14 03:00:55;;;;;;;1.40;1.30;;;6.60;99.90;;;;;;4808395;28;20215;-80
2021/03/14 03:03:21;;;;;;;1.13;1.10;;;6.50;99.90;;;;;;4809545;28;20606;-81
2021/03/14 03:05:43;;;;;;;1.03;1.03;;;6.50;99.90;;;;;;4797106;28;20184;-80
2021/03/14 03:08:07;;;;;;;1.37;1.27;;;6.50;99.90;;;;;;4796748;28;20532;-80
2021/03/14 03:10:34;;;;;;;1.17;1.10;;;6.40;99.90;;;;;;4795237;28;20196;-83
2021/03/14 03:12:58;;;;;;;1.30;1.00;;;6.40;99.90;;;;;;4797442;28;20220;-84
2021/03/14 03:15:23;;;;;;;0.77;0.77;;;6.40;99.90;;;;;;4795681;28;20593;-80
2021/03/14 03:17:49;;;;;;;0.80;0.80;;;6.40;99.90;;;;;;4808089;28;20641;-79
2021/03/14 03:20:12;;;;;;;0.63;0.63;;;6.40;99.90;;;;;;4899164;28;20344;-79
2021/03/14 03:22:35;;;;;;;0.80;0.80;;;6.40;99.90;;;;;;4801880;28;20750;-84
2021/03/14 03:24:57;;;;;;;0.90;0.70;;;6.40;99.90;;;;;;4802211;28;20200;-79
2021/03/14 03:27:19;;;;;;;1.00;0.70;;;6.40;99.90;;;;;;4816257;28;20233;-77
2021/03/14 03:29:42;;;;;;;0.70;0.70;;;6.40;99.90;;;;;;4803448;28;20257;-81
2021/03/14 03:32:04;;;;;;;0.90;0.90;;;6.40;99.90;;;;;;4798948;28;20196;-76
2021/03/14 03:34:27;;;;;;;0.90;0.90;;;6.30;99.90;;;;;;4817940;28;20577;-80
2021/03/14 03:36:50;;;;;;;1.10;1.00;;;6.30;99.90;;;;;;4812769;28;20218;-75
2021/03/14 03:39:13;;;;;;;1.87;1.77;;;6.30;99.90;;;;;;4800223;28;20657;-77
2021/03/14 03:41:43;;;;;;;1.23;1.13;;;6.30;99.90;;;;;;4813730;28;20269;-76
2021/03/14 03:44:06;;;;;;;1.17;1.00;;;6.40;99.90;;;;;;4812688;28;20191;-82
2021/03/14 03:46:29;;;;;;;1.03;1.00;;;6.40;99.90;;;;;;4816203;28;20320;-79
2021/03/14 03:48:55;;;;;;;0.90;0.90;;;6.40;99.90;;;;;;4806969;28;20722;-83
2021/03/14 03:51:22;;;;;;;0.80;0.80;;;6.40;99.90;;;;;;4803889;28;20200;-77
2021/03/14 03:53:45;;;;;;;1.10;1.10;;;6.40;99.90;;;;;;4801917;28;20185;-76
2021/03/14 03:56:12;;;;;;;1.30;1.20;;;6.40;99.90;;;;;;4782882;28;20199;-79
2021/03/14 03:58:35;;;;;;;1.10;1.00;;;6.40;99.90;;;;;;4906893;28;20617;-85
2021/03/14 04:00:58;;;;;;;1.40;1.10;;;6.50;99.90;;;;;;4797741;28;20277;-78
2021/03/14 04:03:22;;;;;;;0.77;0.77;;;6.40;99.90;;;;;;4807388;28;20272;-81
2021/03/14 04:05:45;;;;;;;0.80;0.70;;;6.40;99.90;;;;;;4813253;28;20181;-78
2021/03/14 04:08:09;;;;;;;1.57;0.87;;;6.40;99.90;;;;;;4798286;28;20250;-80
2021/03/14 04:10:32;;;;;;;0.90;0.90;;;6.30;99.90;;;;;;4817918;28;20187;-78
2021/03/14 04:12:56;;;;;;;0.73;0.73;;;6.30;99.90;;;;;;4818195;28;20625;-83
2021/03/14 04:15:22;;;;;;;0.87;0.87;;;6.30;99.90;;;;;;4817395;28;20241;-73
2021/03/14 04:17:45;;;;;;;0.93;0.73;;;6.30;99.90;;;;;;4815850;28;20208;-82
2021/03/14 04:20:12;;;;;;;0.90;0.90;;;6.30;99.90;;;;;;4799485;28;20219;-85
2021/03/14 04:22:36;;;;;;;0.87;0.73;;;6.20;99.90;;;;;;4814592;28;20211;-83
2021/03/14 04:25:01;;;;;;;0.60;0.60;;;6.20;99.90;;;;;;4816499;28;20241;-87
2021/03/14 04:27:24;;;;;;;0.80;0.80;;;6.20;99.90;;;;;;4817480;28;20543;-82
2021/03/14 04:29:47;;;;;;;0.90;0.83;;;6.20;99.90;;;;;;4918813;28;20220;-77
2021/03/14 04:32:10;;;;;;;0.87;0.80;;;6.20;99.90;;;;;;4919906;28;20191;-74
2021/03/14 04:34:34;;;;;;;0.80;0.80;;;6.10;99.90;;;;;;4805607;28;20225;-75
2021/03/14 04:36:56;;;;;;;0.83;0.80;;;6.20;99.90;;;;;;4816912;28;20184;-75
2021/03/14 04:39:19;;;;;;;1.03;0.80;;;6.10;99.90;;;;;;4902036;28;20584;-73
2021/03/14 04:41:45;;;;;;;0.80;0.80;;;6.10;99.90;;;;;;4906475;28;20237;-79
2021/03/14 04:44:09;;;;;;;0.70;0.70;;;6.10;99.90;;;;;;4815974;28;20187;-80
2021/03/14 04:46:31;;;;;;;0.63;0.63;;;6.10;99.90;;;;;;4797137;28;20203;-80
2021/03/14 04:48:55;;;;;;;0.90;0.90;;;6.10;99.90;;;;;;4800525;28;20184;-75
2021/03/14 04:51:17;;;;;;;1.07;1.00;;;6.00;99.90;;;;;;4805762;28;20185;-82
2021/03/14 04:53:41;;;;;;;0.70;0.70;;;6.00;1.00;;;;;;4811260;28;20200;-79
2021/03/14 04:56:05;;;;;;;0.60;0.60;;;6.00;1.00;;;;;;4810008;28;20242;-72
2021/03/14 04:58:30;;;;;;;0.80;0.80;;;6.00;1.00;;;;;;4801861;28;20188;-80
2021/03/14 05:00:53;;;;;;;0.87;0.77;;;6.00;1.00;;;;;;4812622;28;20243;-79
2021/03/14 05:03:18;;;;;;;0.90;0.90;;;6.00;1.00;;;;;;4817146;28;20300;-82
2021/03/14 05:05:42;;;;;;;1.17;1.07;;;6.00;1.00;;;;;;4812661;28;20200;-74
2021/03/14 05:08:05;;;;;;;1.17;1.07;;;5.90;1.00;;;;;;4799322;28;20238;-78
2021/03/14 05:10:28;;;;;;;0.93;0.93;;;6.00;1.00;;;;;;4798508;28;20192;-78
2021/03/14 05:12:51;;;;;;;1.40;1.30;;;6.00;1.00;;;;;;4806528;28;20219;-77
2021/03/14 05:15:17;;;;;;;1.70;1.60;;;6.00;1.00;;;;;;4800141;28;20241;-81
2021/03/14 05:17:39;;;;;;;1.60;1.50;;;6.00;99.90;;;;;;4786618;28;20288;-83
2021/03/14 05:20:02;;;;;;;1.50;1.40;;;6.10;99.90;;;;;;4815496;28;20573;-81
2021/03/14 05:22:24;;;;;;;1.90;1.10;;;6.00;1.00;;;;;;4890348;28;20242;-78
2021/03/14 05:24:47;;;;;;;1.60;1.10;;;6.10;1.00;;;;;;4797278;28;20204;-78
2021/03/14 05:27:11;;;;;;;1.17;1.07;;;6.00;1.00;;;;;;4798274;28;20555;-82
2021/03/14 05:29:34;;;;;;;0.93;0.90;;;6.10;1.00;;;;;;4798311;28;20241;-73
2021/03/14 05:31:58;;;;;;;0.97;0.97;;;6.00;1.00;;;;;;4802867;28;20191;-81
2021/03/14 05:34:20;;;;;;;1.40;1.30;;;6.00;1.00;;;;;;4815015;28;20191;-83
2021/03/14 05:36:42;;;;;;;1.63;1.27;;;6.00;1.00;;;;;;4802794;28;20207;-81
2021/03/14 05:39:05;;;;;;;1.13;1.03;;;6.00;1.00;;;;;;4801468;28;20204;-83
2021/03/14 05:41:28;;;;;;;1.30;1.20;;;6.10;1.00;;;;;;4917015;28;20280;-79
2021/03/14 05:43:50;;;;;;;1.43;1.30;;;6.10;1.00;;;;;;4805509;28;20191;-80
2021/03/14 05:46:12;;;;;;;2.87;1.60;;;6.10;1.00;;;;;;4799269;28;20199;-81
2021/03/14 05:48:35;;;;;;;1.70;1.60;;;6.20;99.90;;;;;;4806983;28;20234;-80
2021/03/14 05:50:57;;;;;;;2.10;1.80;;;6.30;99.90;;;;;;4812220;28;20249;-81
2021/03/14 05:53:20;;;;;;;1.90;1.80;;;6.30;99.90;;;;;;4813676;28;20230;-81
2021/03/14 05:55:42;;;;;;;2.50;2.30;;;6.30;99.90;;;;;;4915618;28;20786;-82
2021/03/14 05:58:04;;;;;;;1.73;1.63;;;6.30;99.90;;;;;;4808295;28;20726;-83
2021/03/14 06:00:28;;;;;;;2.07;1.87;;;6.30;99.90;;;;;;4798278;28;20265;-75
2021/03/14 06:02:52;;;;;;;1.90;1.80;;;6.40;99.90;;;;;;4815350;28;20231;-79
2021/03/14 06:05:15;;;;;;;1.60;1.50;;;6.40;99.90;;;;;;4813995;28;20604;-81
2021/03/14 06:07:38;;;;;;;1.07;1.00;;;6.50;99.90;;;;;;4815547;28;20211;-73
2021/03/14 06:10:00;;;;;;;1.20;1.10;;;6.50;99.90;;;;;;4814812;28;20199;-78
2021/03/14 06:12:22;;;;;;;1.50;1.30;;;6.60;99.90;;;;;;4814306;28;20231;-84
2021/03/14 06:14:44;;;;;;;1.23;1.10;;;6.60;99.90;;;;;;4914201;28;20187;-79
2021/03/14 06:17:06;;;;;;;1.00;1.00;;;6.50;99.90;;;;;;4816152;28;20722;-80
2021/03/14 06:19:29;;;;;;;1.20;0.90;;;6.60;99.90;;;;;;4814809;28;20249;-80
2021/03/14 06:21:52;;;;;;;1.47;1.20;;;6.60;99.90;;;;;;4812089;28;20207;-80
2021/03/14 06:24:14;;;;;;;1.10;1.00;;;6.60;99.90;;;;;;4815288;28;20191;-80
2021/03/14 06:26:39;;;;;;;1.40;1.30;;;6.60;99.90;;;;;;4814777;28;20698;-80
2021/03/14 06:29:22;;;;;;;1.40;1.30;;;6.60;99.90;;;;;;4800699;28;20254;-82
2021/03/14 06:31:45;;;;;;;1.67;1.57;;;6.60;99.90;;;;;;4804969;28;20233;-78
2021/03/14 06:34:24;;;;;;;1.40;1.30;;;6.70;99.90;;;;;;4900696;28;20188;-80
2021/03/14 06:36:46;;;;;;;1.93;1.83;;;6.80;99.90;;;;;;4803337;28;20188;-78
2021/03/14 06:39:22;;;;;;;2.00;1.47;;;6.90;99.90;;;;;;4797679;28;20196;-81
2021/03/14 06:41:44;;;;;;;1.30;1.20;;;7.00;99.90;;;;;;4801256;28;20237;-81
2021/03/14 06:44:06;;;;;;;1.83;1.60;;;7.00;99.90;;;;;;4809755;28;20750;-72
2021/03/14 06:46:30;;;;;;;1.63;1.53;;;7.10;99.90;;;;;;4797735;28;20196;-79
2021/03/14 06:49:09;;;;;;;1.60;1.50;;;7.10;99.90;;;;;;4814227;28;20212;-78
2021/03/14 06:51:33;;;;;;;2.10;1.87;;;7.10;99.90;;;;;;4811243;28;20207;-81
2021/03/14 06:53:55;;;;;;;1.53;1.43;;;7.10;99.90;;;;;;4809802;28;20262;-80
2021/03/14 06:56:26;;;;;;;1.40;1.30;;;7.10;92.80;;;;;;4814612;28;20188;-79
2021/03/14 06:58:48;;;;;;;1.93;1.00;;;7.10;91.50;;;;;;4811204;28;20184;-80
2021/03/14 07:01:15;;;;;;;1.53;1.43;;;7.00;53.50;;;;;;4807825;28;20284;-82
2021/03/14 07:03:39;;;;;;;1.30;1.10;;;7.10;37.10;;;;;;4819671;28;20176;-84
2021/03/14 07:06:19;;;;;;;1.00;1.00;;;7.10;59.00;;;;;;4790997;28;20247;-82
2021/03/14 07:08:42;;;;;;;1.47;1.27;;;7.20;19.10;;;;;;4797592;28;20602;-82
2021/03/14 07:11:04;;;;;;;1.20;1.10;;;7.30;19.40;;;;;;4816151;28;20196;-77
2021/03/14 07:13:28;;;;;;;1.90;1.30;;;7.40;1.00;;;;;;4792656;28;20216;-82
2021/03/14 07:15:50;;;;;;;1.10;1.10;;;7.40;1.00;;;;;;4815127;28;20187;-83
2021/03/14 07:18:14;;;;;;;1.17;1.07;;;7.60;1.00;;;;;;4806473;28;20200;-80
2021/03/14 07:20:37;;;;;;;0.97;0.97;;;7.70;1.00;;;;;;4808555;28;20229;-78
2021/03/14 07:22:59;;;;;;;0.90;0.90;;;7.70;1.00;;;;;;4812461;28;20192;-84
2021/03/14 07:25:22;;;;;;;1.10;1.00;;;7.80;1.00;;;;;;4903434;28;20192;-82
2021/03/14 07:27:45;;;;;;;1.20;1.10;;;7.90;1.00;;;;;;4810378;28;20222;-82
2021/03/14 07:30:10;;;;;;;1.00;0.90;;;8.10;1.00;;;;;;4812169;28;20242;-85
2021/03/14 07:32:32;;;;;;;1.00;0.90;;;8.20;1.00;;;;;;4802408;28;20192;-81
2021/03/14 07:34:54;;;;;;;1.00;0.90;;;8.30;1.00;;;;;;4819400;28;20221;-74
2021/03/14 07:37:17;;;;;;;1.23;1.10;;;8.30;1.00;;;;;;4891386;28;20256;-83
2021/03/14 07:39:39;;;;;;;1.17;1.00;;;8.40;1.00;;;;;;4889982;28;20686;-81
2021/03/14 07:42:02;;;;;;;0.80;0.80;;;8.40;1.00;;;;;;4782340;28;20592;-83
2021/03/14 07:44:25;;;;;;;1.10;1.10;;;8.50;1.00;;;;;;4813133;28;20191;-78
2021/03/14 07:46:50;;;;;;;0.80;0.80;;;8.60;1.00;;;;;;4812966;28;20188;-75
2021/03/14 07:49:14;;;;;;;3.20;0.93;;;8.60;1.00;;;;;;4799209;28;20220;-82
2021/03/14 07:51:38;;;;;;;1.10;1.00;;;8.70;1.00;;;;;;4799893;28;20534;-80
2021/03/14 07:54:04;;;;;;;0.93;0.93;;;8.80;1.00;;;;;;4818376;28;20218;-85
2021/03/14 07:56:32;;;;;;;1.13;1.10;;;9.00;1.00;;;;;;4810054;28;20192;-79
2021/03/14 07:58:57;;;;;;;1.00;0.90;;;9.10;1.00;;;;;;4813973;28;20196;-82
2021/03/14 08:01:26;;;;;;;1.00;0.90;;;9.20;1.00;;;;;;4814662;28;20235;-72
2021/03/14 08:03:50;;;;;;;0.83;0.83;;;9.30;1.00;;;;;;4799289;28;20579;-73
2021/03/14 08:06:17;;;;;;;0.97;0.97;;;9.40;1.00;;;;;;4816549;28;20233;-71
2021/03/14 08:08:47;;;;;;;0.70;0.70;;;9.40;1.00;;;;;;4919805;28;20187;-79
2021/03/14 08:11:22;;;;;;;0.80;0.80;;;9.50;1.00;;;;;;4917829;28;20187;-78
2021/03/14 08:13:44;;;;;;;1.00;1.00;;;9.50;1.00;;;;;;4904400;28;20206;-73
2021/03/14 08:16:08;;;;;;;0.93;0.83;;;9.60;1.00;;;;;;4813800;28;20195;-81
2021/03/14 08:18:41;;;;;;;0.90;0.90;;;9.60;1.00;;;;;;4827841;28;20239;-82
2021/03/14 08:21:05;;;;;;;1.07;1.00;;;9.40;1.00;;;;;;4882794;28;20228;-74
2021/03/14 08:23:41;;;;;;;1.10;1.10;;;9.30;1.00;;;;;;4825082;28;20208;-83
2021/03/14 08:26:16;;;;;;;0.87;0.80;;;9.40;1.00;;;;;;4816923;28;20572;-88
2021/03/14 08:28:38;;;;;;;2.20;0.90;;;9.40;1.00;;;;;;4914128;28;20202;-80
2021/03/14 08:31:08;;;;;;;1.00;0.83;;;9.40;1.00;;;;;;4799102;28;20218;-73
2021/03/14 08:33:40;;;;;;;0.70;0.70;;;9.50;1.00;;;;;;4797851;28;20689;-81
2021/03/14 08:36:12;;;;;;;0.83;0.83;;;9.50;1.00;;;;;;4796477;28;20208;-75
2021/03/14 08:38:46;;;;;;;0.90;0.90;;;9.50;1.00;;;;;;4810985;28;20195;-74
2021/03/14 08:41:26;;;;;;;1.00;1.00;;;9.50;1.00;;;;;;4810250;28;20386;-73
2021/03/14 08:43:55;;;;;;;1.50;0.80;;;9.50;1.00;;;;;;4883937;28;20586;-75
2021/03/14 08:46:41;;;;;;;1.47;1.30;;;9.50;1.00;;;;;;4879173;28;20205;-74
2021/03/14 08:49:09;;;;;;;1.17;1.07;;;9.60;1.00;;;;;;4814221;28;20207;-76
2021/03/14 08:51:36;;;;;;;1.00;1.00;;;9.60;1.00;;;;;;4918160;28;20203;-72
2021/03/14 08:54:02;;;;;;;1.37;1.27;;;9.60;1.00;;;;;;4897191;28;20208;-75
2021/03/14 08:56:38;;;;;;;1.13;1.03;;;9.70;1.00;;;;;;4916774;28;20569;-75
2021/03/14 08:59:05;;;;;;;1.83;1.20;;;9.70;1.00;;;;;;4816272;28;20222;-75
2021/03/14 09:01:29;;;;;;;1.00;1.00;;;9.90;1.00;;;;;;4789011;28;20277;-73
2021/03/14 09:04:12;;;;;;;1.40;1.30;;;10.00;1.00;;;;;;4815864;28;20257;-74
2021/03/14 09:06:36;;;;;;;1.43;1.13;;;10.10;1.00;;;;;;4794974;28;20204;-73
2021/03/14 09:09:06;;;;;;;1.17;1.07;;;10.20;1.00;;;;;;4814717;28;20249;-74
2021/03/14 09:11:43;;;;;;;1.10;1.10;;;10.40;1.00;;;;;;4814763;28;20233;-74
2021/03/14 09:14:33;;;;;;;0.73;0.70;;;10.50;1.00;;;;;;4814718;28;20257;-75
2021/03/14 09:17:00;;;;;;;0.93;0.93;;;10.70;1.00;;;;;;4815691;28;20203;-75
2021/03/14 09:19:30;;;;;;;0.87;0.87;;;10.70;1.00;;;;;;4815477;28;20233;-73
2021/03/14 09:21:54;;;;;;;0.87;0.80;;;10.70;1.00;;;;;;4815514;28;20712;-73
2021/03/14 09:24:29;;;;;;;0.90;0.90;;;10.70;1.00;;;;;;4898938;28;20192;-77
2021/03/14 09:26:56;;;;;;;1.07;0.97;;;10.70;1.00;;;;;;4780960;28;20653;-75
2021/03/14 09:29:36;;;;;;;1.00;1.00;;;10.80;1.00;;;;;;4814753;28;20211;-75
2021/03/14 09:31:58;;;;;;;0.60;0.60;;;10.90;1.00;;;;;;4797331;28;20200;-76
2021/03/14 09:34:24;;;;;;;2.30;0.67;;;11.10;1.00;;;;;;4907580;28;20797;-78
2021/03/14 09:36:49;;;;;;;0.70;0.70;;;11.20;1.00;;;;;;4899998;28;20187;-76
2021/03/14 09:39:20;;;;;;;0.80;0.80;;;11.50;1.00;;;;;;4813221;28;20199;-76
2021/03/14 09:42:08;;;;;;;0.80;0.80;;;11.80;1.00;;;;;;4795157;28;20216;-74
2021/03/14 09:45:07;;;;;;;0.60;0.60;;;11.90;1.00;;;;;;4803086;28;20187;-76
2021/03/14 09:47:29;;;;;;;0.83;0.83;;;12.10;1.00;;;;;;4802714;28;20646;-75
2021/03/14 09:50:01;;;;;;;0.77;0.77;;;12.40;1.00;;;;;;4796318;28;20204;-76
2021/03/14 09:52:25;;;;;;;0.77;0.77;;;12.90;1.00;;;;;;4880813;28;20637;-73
2021/03/14 09:54:51;;;;;;;0.77;0.77;;;13.70;1.00;;;;;;4812143;28;20216;-75
2021/03/14 09:57:21;;;;;;;0.60;0.60;;;14.40;1.00;;;;;;4804038;28;21118;-75
2021/03/14 09:59:56;;;;;;;0.63;0.63;;;15.20;1.00;;;;;;4814584;28;20223;-75
2021/03/14 10:02:37;;;;;;;0.57;0.57;;;16.00;1.00;;;;;;4806023;28;20276;-76
2021/03/14 10:05:13;;;;;;;0.40;0.40;;;16.40;1.00;;;;;;4812129;28;20253;-76
2021/03/14 10:07:36;;;;;;;0.53;0.53;;;16.00;1.00;;;;;;4814202;28;20626;-75
2021/03/14 10:10:04;;;;;;;0.40;0.40;;;15.70;1.00;;;;;;4797822;28;20200;-74
2021/03/14 10:12:39;;;;;;;0.50;0.50;;;15.20;1.00;;;;;;4794378;28;20713;-74
2021/03/14 10:15:02;;;;;;;0.53;0.53;;;14.90;1.00;;;;;;4800979;28;20200;-73
2021/03/14 10:17:25;;;;;;;0.60;0.60;;;14.70;1.00;;;;;;4779112;28;20189;-72
2021/03/14 10:19:47;;;;;;;0.57;0.57;;;14.20;1.00;;;;;;4805724;28;20741;-72
2021/03/14 10:22:11;;;;;;;0.73;0.73;;;13.90;1.00;;;;;;4883182;28;20265;-72
2021/03/14 10:24:59;;;;;;;0.63;0.63;;;13.60;1.00;;;;;;4803444;28;20192;-74
2021/03/14 10:27:36;;;;;;;0.80;0.80;;;13.40;1.00;;;;;;4811888;28;20203;-72
2021/03/14 10:30:11;;;;;;;0.97;0.97;;;13.20;1.00;;;;;;4802618;28;20211;-75
2021/03/14 10:32:55;;;;;;;0.87;0.87;;;13.00;1.00;;;;;;4795992;28;20649;-74
2021/03/14 10:35:25;;;;;;;0.90;0.90;;;12.70;1.00;;;;;;4884405;28;20191;-73
2021/03/14 10:37:56;;;;;;;0.80;0.80;;;12.50;1.00;;;;;;4919487;28;20707;-73
2021/03/14 10:40:25;;;;;;;0.90;0.90;;;12.30;1.00;;;;;;4907837;28;20760;-73
2021/03/14 10:42:56;;;;;;;1.10;1.10;;;12.30;1.00;;;;;;4799774;28;20269;-73
2021/03/14 10:45:46;;;;;;;0.87;0.87;;;12.40;1.00;;;;;;4901444;28;20304;-80
2021/03/14 10:48:11;;;;;;;1.17;1.07;;;12.50;1.00;;;;;;4814775;28;20203;-74
2021/03/14 10:50:38;;;;;;;1.00;1.00;;;12.60;1.00;;;;;;4799144;28;20196;-75
2021/03/14 10:53:12;;;;;;;0.77;0.77;;;12.60;1.00;;;;;;4783134;28;20208;-72
2021/03/14 10:55:37;;;;;;;0.87;0.87;;;12.50;1.00;;;;;;4798103;28;20604;-74
2021/03/14 10:58:08;;;;;;;0.87;0.87;;;12.30;1.00;;;;;;4793145;28;20207;-73
2021/03/14 11:00:42;;;;;;;;;;;;;;;;;;;;;
2021/03/14 11:03:12;;;;;;;1.00;1.00;;;11.80;1.00;;;;;;4847294;28;20807;-73
2021/03/14 11:05:34;;;;;;;0.80;0.80;;;11.90;1.00;;;;;;4821022;28;20249;-74
2021/03/14 11:08:01;;;;;;;1.30;1.03;;;12.00;1.00;;;;;;4799661;28;20192;-72
2021/03/14 11:10:36;;;;;;;0.90;0.90;;;12.20;1.00;;;;;;4817497;28;20219;-73
2021/03/14 11:13:19;;;;;;;0.90;0.90;;;12.40;1.00;;;;;;4803674;28;20448;-73
2021/03/14 11:16:05;;;;;;;0.83;0.83;;;12.60;1.00;;;;;;4798921;28;20173;-78
2021/03/14 11:18:30;;;;;;;0.90;0.90;;;12.80;1.00;;;;;;4815995;28;20604;-74
2021/03/14 11:21:10;;;;;;;1.00;0.90;;;12.80;1.00;;;;;;4891716;28;20191;-75
2021/03/14 11:23:36;;;;;;;0.90;0.90;;;12.70;1.00;;;;;;4798894;28;20228;-73
2021/03/14 11:25:59;;;;;;;0.73;0.73;;;12.80;1.00;;;;;;4815869;28;20238;-73
2021/03/14 11:28:23;;;;;;;1.23;1.13;;;13.10;1.00;;;;;;4816547;28;20253;-73
2021/03/14 11:30:48;;;;;;;0.73;0.73;;;13.50;1.00;;;;;;4812243;28;20207;-74
2021/03/14 11:33:13;;;;;;;0.67;0.67;;;13.90;1.00;;;;;;4816047;28;20246;-75
2021/03/14 11:35:51;;;;;;;0.60;0.60;;;14.20;1.00;;;;;;4807978;28;20223;-74
2021/03/14 11:38:36;;;;;;;0.60;0.60;;;15.30;1.00;;;;;;4799420;28;20204;-78
2021/03/14 11:41:33;;;;;;;0.77;0.60;;;15.50;1.00;;;;;;4795056;28;20196;-73
2021/03/14 11:44:10;;;;;;;0.57;0.57;;;15.90;1.00;;;;;;4799548;28;20246;-75
2021/03/14 11:46:34;;;;;;;0.40;0.40;;;17.70;1.00;;;;;;4816296;28;20211;-73
2021/03/14 11:49:13;;;;;;;0.40;0.40;;;19.30;1.00;;;;;;4809412;28;20195;-74
2021/03/14 11:51:37;;;;;;;0.30;0.30;;;19.40;1.00;;;;;;4796925;28;20204;-73
2021/03/14 11:54:10;;;;;;;0.23;0.23;;;19.60;1.00;;;;;;4813857;28;20245;-74
2021/03/14 11:56:33;;;;;;;0.20;0.20;;;20.10;1.00;;;;;;4816775;28;20234;-75
2021/03/14 11:58:57;;;;;;;0.20;0.20;;;21.00;1.00;;;;;;4818021;28;20617;-87
2021/03/14 12:01:22;;;;;;;0.20;0.20;;;21.50;1.00;;;;;;4899607;28;20227;-83
2021/03/14 12:03:48;;;;;;;0.20;0.20;;;22.00;1.00;;;;;;4817861;28;20215;-75
2021/03/14 12:06:17;;;;;;;0.20;0.20;;;21.50;99.90;;;;;;4816314;28;20239;-75
2021/03/14 12:08:53;;;;;;;0.20;0.20;;;20.70;99.90;;;;;;4812907;28;20330;-91
2021/03/14 12:11:16;;;;;;;0.30;0.30;;;19.60;99.90;;;;;;4798361;28;20212;-75
2021/03/14 12:13:43;;;;;;;0.20;0.20;;;18.60;99.90;;;;;;4775700;29;20267;-82
2021/03/14 12:16:26;;;;;;;0.30;0.30;;;17.50;99.90;;;;;;4779577;28;20641;-84
2021/03/14 12:18:48;;;;;;;0.30;0.30;;;16.60;99.90;;;;;;4781520;28;20193;-76
2021/03/14 12:21:11;;;;;;;0.40;0.40;;;15.80;99.90;;;;;;4764259;28;20616;-88
2021/03/14 12:23:39;;;;;;;0.40;0.40;;;15.20;99.90;;;;;;4796608;28;20228;-78
2021/03/14 12:26:14;;;;;;;0.60;0.60;;;14.70;99.90;;;;;;4879584;28;20250;-87
2021/03/14 12:28:40;;;;;;;0.50;0.50;;;14.40;99.90;;;;;;4779041;29;20625;-83
2021/03/14 12:31:03;;;;;;;0.50;0.50;;;14.10;99.90;;;;;;4764779;28;20188;-81
2021/03/14 12:33:30;;;;;;;0.60;0.60;;;14.10;99.90;;;;;;4779896;28;20239;-84
2021/03/14 12:35:52;;;;;;;0.60;0.60;;;14.20;99.90;;;;;;4763574;28;20742;-74
2021/03/14 12:38:29;;;;;;;0.50;0.50;;;14.30;99.90;;;;;;4781028;28;20204;-82
2021/03/14 12:40:51;;;;;;;0.57;0.40;;;14.20;99.90;;;;;;4780179;28;20209;-82
2021/03/14 12:43:13;;;;;;;0.60;0.60;;;14.20;99.90;;;;;;4782124;28;20217;-88
2021/03/14 12:45:41;;;;;;;0.73;0.73;;;14.20;99.90;;;;;;4799008;28;20247;-86
2021/03/14 12:48:04;;;;;;;0.60;0.60;;;14.20;99.90;;;;;;4811474;28;20187;-74
2021/03/14 12:50:32;;;;;;;0.43;0.43;;;14.20;99.90;;;;;;4779362;28;20246;-87
2021/03/14 12:52:54;;;;;;;0.50;0.50;;;14.10;99.90;;;;;;4763491;29;20728;-84
2021/03/14 12:55:16;;;;;;;0.50;0.50;;;13.90;99.90;;;;;;4762731;28;20233;-79